Time;durP1;ratioP1;P1;durP2;ratioP2;P2;SDS_P1;SDS_P2;PMS_P1;PMS_P2;Temp;Humidity;BMP_temperature;BMP_pressure;BME280_temperature;BME280_humidity;BME280_pressure;Samples;Min_cycle;Max_cycle;Signal;HPM_P1;HPM_P2
2022/06/28 00:01:21;;;;;;;11.88;6.22;;;;;;;;;;5027330;28;20057;-72
2022/06/28 00:03:51;;;;;;;6.88;6.10;;;;;;;;;;5027752;28;20053;-72
2022/06/28 00:06:21;;;;;;;6.95;5.90;;;;;;;;;;5026809;28;20049;-73
2022/06/28 00:08:50;;;;;;;7.82;5.95;;;;;;;;;;5027887;28;20064;-72
2022/06/28 00:11:20;;;;;;;8.75;5.45;;;;;;;;;;5026877;28;20393;-72
2022/06/28 00:13:51;;;;;;;8.65;5.22;;;;;;;;;;5026631;28;20061;-71
2022/06/28 00:16:20;;;;;;;11.45;5.28;;;;;;;;;;5027041;28;20509;-74
2022/06/28 00:18:51;;;;;;;13.80;6.90;;;;;;;;;;5027587;28;20056;-73
2022/06/28 00:21:20;;;;;;;14.15;8.00;;;;;;;;;;5027479;28;20049;-73
2022/06/28 00:23:50;;;;;;;11.43;5.95;;;;;;;;;;5027228;28;20045;-72
2022/06/28 00:26:20;;;;;;;12.13;5.22;;;;;;;;;;5026934;28;20054;-73
2022/06/28 00:28:51;;;;;;;11.50;6.13;;;;;;;;;;5027537;28;20393;-73
2022/06/28 00:31:25;;;;;;;23.67;7.30;;;;;;;;;;5025405;28;20405;-72
2022/06/28 00:33:56;;;;;;;17.55;7.82;;;;;;;;;;5026007;28;20049;-73
2022/06/28 00:36:26;;;;;;;19.30;7.25;;;;;;;;;;5027035;28;20402;-72
2022/06/28 00:38:55;;;;;;;17.67;6.72;;;;;;;;;;5026657;28;20050;-72
2022/06/28 00:41:26;;;;;;;9.68;5.90;;;;;;;;;;5026391;28;20057;-73
2022/06/28 00:43:56;;;;;;;8.93;5.70;;;;;;;;;;5026972;28;20049;-72
2022/06/28 00:46:33;;;;;;;24.00;6.53;;;;;;;;;;5026873;28;20102;-73
2022/06/28 00:49:04;;;;;;;14.15;6.22;;;;;;;;;;5027089;28;20042;-72
2022/06/28 00:51:34;;;;;;;16.47;6.63;;;;;;;;;;5009467;28;20065;-72
2022/06/28 00:54:04;;;;;;;14.50;6.07;;;;;;;;;;5026977;28;20430;-73
2022/06/28 00:56:34;;;;;;;12.98;6.47;;;;;;;;;;5025290;28;20049;-73
2022/06/28 00:59:03;;;;;;;7.22;5.85;;;;;;;;;;5025458;28;20057;-73
2022/06/28 01:01:34;;;;;;;12.65;5.97;;;;;;;;;;5024809;28;20053;-73
2022/06/28 01:04:04;;;;;;;11.32;6.28;;;;;;;;;;5025634;28;20057;-73
2022/06/28 01:06:40;;;;;;;20.08;7.88;;;;;;;;;;5026756;28;20050;-72
2022/06/28 01:09:10;;;;;;;14.80;9.18;;;;;;;;;;5027199;28;20058;-73
2022/06/28 01:11:40;;;;;;;28.98;17.60;;;;;;;;;;5027462;28;20045;-72
2022/06/28 01:14:10;;;;;;;13.00;8.95;;;;;;;;;;5026117;28;20513;-72
2022/06/28 01:17:12;;;;;;;13.25;8.02;;;;;;;;;;5005030;28;20062;-72
2022/06/28 01:19:48;;;;;;;12.90;8.07;;;;;;;;;;5058280;28;20056;-72
2022/06/28 01:22:40;;;;;;;11.10;7.33;;;;;;;;;;5026050;28;20061;-72
2022/06/28 01:25:15;;;;;;;9.93;6.40;;;;;;;;;;5024875;28;20060;-74
2022/06/28 01:27:47;;;;;;;11.93;6.47;;;;;;;;;;5058198;28;20859;-72
2022/06/28 01:30:17;;;;;;;11.02;5.72;;;;;;;;;;5024989;28;20053;-72
2022/06/28 01:32:57;;;;;;;15.55;6.30;;;;;;;;;;5025281;28;20053;-72
2022/06/28 01:35:28;;;;;;;10.57;5.53;;;;;;;;;;5025139;28;20091;-73
2022/06/28 01:38:00;;;;;;;10.40;6.30;;;;;;;;;;5023960;28;20049;-72
2022/06/28 01:40:30;;;;;;;10.15;6.25;;;;;;;;;;5024820;28;20865;-72
2022/06/28 01:43:01;;;;;;;14.45;8.48;;;;;;;;;;5023778;28;20057;-72
2022/06/28 01:45:37;;;;;;;21.15;10.30;;;;;;;;;;5024480;28;20065;-72
2022/06/28 01:48:06;;;;;;;14.43;9.65;;;;;;;;;;5027230;28;20412;-72
2022/06/28 01:50:59;;;;;;;19.70;11.20;;;;;;;;;;5025635;28;20730;-72
2022/06/28 01:53:30;;;;;;;15.10;10.43;;;;;;;;;;5024050;28;20061;-72
2022/06/28 01:56:03;;;;;;;20.13;10.52;;;;;;;;;;5057037;28;20068;-72
2022/06/28 01:58:55;;;;;;;14.60;9.43;;;;;;;;;;5026986;28;20535;-72
2022/06/28 02:01:31;;;;;;;18.63;10.80;;;;;;;;;;5024577;28;20436;-72
2022/06/28 02:04:25;;;;;;;20.52;9.82;;;;;;;;;;5025312;28;20421;-72
2022/06/28 02:07:00;;;;;;;13.35;7.95;;;;;;;;;;5027713;28;20068;-72
2022/06/28 02:09:36;;;;;;;12.10;8.30;;;;;;;;;;5029368;28;20053;-73
2022/06/28 02:12:07;;;;;;;12.48;8.75;;;;;;;;;;5028806;28;20058;-72
2022/06/28 02:14:43;;;;;;;13.73;9.25;;;;;;;;;;5030365;28;20050;-72
2022/06/28 02:17:13;;;;;;;14.55;9.13;;;;;;;;;;5030081;28;20053;-72
2022/06/28 02:19:43;;;;;;;12.30;8.25;;;;;;;;;;5028395;28;20061;-72
2022/06/28 02:22:12;;;;;;;13.10;9.77;;;;;;;;;;5028349;28;20049;-72
2022/06/28 02:24:42;;;;;;;15.23;8.27;;;;;;;;;;5029728;28;20424;-72
2022/06/28 02:27:12;;;;;;;15.95;7.60;;;;;;;;;;5029536;28;20049;-72
2022/06/28 02:29:43;;;;;;;;;;;;;;;;;;5028957;28;20859;-72
2022/06/28 02:32:13;;;;;;;17.65;8.23;;;;;;;;;;5029186;28;19921;-73
2022/06/28 02:40:23;;;;;;;15.88;7.43;;;;;;;;;;5061982;28;20063;-72
2022/06/28 02:42:55;;;;;;;8.90;7.35;;;;;;;;;;5061782;28;20543;-72
2022/06/28 02:45:32;;;;;;;12.90;7.47;;;;;;;;;;5027821;28;20070;-72
2022/06/28 02:48:03;;;;;;;9.02;7.18;;;;;;;;;;5029038;28;20048;-72
2022/06/28 02:50:34;;;;;;;16.25;8.07;;;;;;;;;;5028186;28;20057;-72
2022/06/28 02:53:04;;;;;;;15.43;7.00;;;;;;;;;;5062658;28;20041;-72
2022/06/28 02:55:34;;;;;;;12.38;7.88;;;;;;;;;;5029992;28;20054;-72
2022/06/28 02:58:03;;;;;;;8.35;7.30;;;;;;;;;;5027753;28;20045;-72
2022/06/28 03:00:33;;;;;;;11.60;7.82;;;;;;;;;;5029808;28;20053;-72
2022/06/28 03:03:04;;;;;;;9.77;8.13;;;;;;;;;;5028594;28;20057;-72
2022/06/28 03:05:35;;;;;;;13.93;8.17;;;;;;;;;;5027369;28;20064;-72
2022/06/28 03:08:09;;;;;;;13.13;8.50;;;;;;;;;;5027692;28;20060;-72
2022/06/28 03:10:40;;;;;;;11.95;8.18;;;;;;;;;;5027369;28;20057;-72
2022/06/28 03:13:11;;;;;;;17.27;10.52;;;;;;;;;;5029213;28;20061;-72
2022/06/28 03:15:41;;;;;;;18.90;9.38;;;;;;;;;;5030848;28;20060;-72
2022/06/28 03:18:11;;;;;;;11.70;9.30;;;;;;;;;;5027413;28;20437;-72
2022/06/28 03:20:41;;;;;;;15.95;10.77;;;;;;;;;;5061121;28;20393;-72
2022/06/28 03:23:11;;;;;;;17.60;10.37;;;;;;;;;;5027192;28;20057;-72
2022/06/28 03:25:44;;;;;;;14.30;9.68;;;;;;;;;;5060414;28;20060;-72
2022/06/28 03:28:14;;;;;;;18.08;11.30;;;;;;;;;;5028971;28;20056;-72
2022/06/28 03:30:49;;;;;;;19.90;11.40;;;;;;;;;;5027585;28;20050;-72
2022/06/28 03:33:19;;;;;;;15.05;10.73;;;;;;;;;;5029161;28;20053;-72
2022/06/28 03:35:49;;;;;;;17.38;10.43;;;;;;;;;;5059806;28;20075;-72
2022/06/28 03:38:20;;;;;;;16.80;11.93;;;;;;;;;;5060651;28;20057;-72
2022/06/28 03:41:07;;;;;;;15.25;10.60;;;;;;;;;;5027017;28;20065;-72
2022/06/28 03:43:39;;;;;;;21.20;11.60;;;;;;;;;;5042811;28;20053;-72
2022/06/28 03:46:11;;;;;;;19.63;11.82;;;;;;;;;;5027818;28;20061;-72
2022/06/28 03:48:48;;;;;;;18.58;12.13;;;;;;;;;;5059929;28;20444;-72
2022/06/28 03:51:18;;;;;;;19.15;11.18;;;;;;;;;;5030242;28;20064;-72
2022/06/28 03:54:06;;;;;;;19.50;12.60;;;;;;;;;;5030861;28;20061;-72
2022/06/28 03:56:43;;;;;;;19.60;12.02;;;;;;;;;;5027359;28;20056;-72
2022/06/28 03:59:13;;;;;;;16.67;11.82;;;;;;;;;;5027226;28;20064;-72
2022/06/28 04:01:43;;;;;;;17.17;11.25;;;;;;;;;;5026981;28;20049;-72
2022/06/28 04:04:13;;;;;;;22.38;10.18;;;;;;;;;;5026445;28;20504;-72
2022/06/28 04:06:46;;;;;;;16.42;10.50;;;;;;;;;;5026353;28;20064;-72
2022/06/28 04:09:19;;;;;;;18.70;11.32;;;;;;;;;;5026086;28;20505;-72
2022/06/28 04:11:53;;;;;;;15.35;11.02;;;;;;;;;;5026211;28;20045;-72
2022/06/28 04:14:24;;;;;;;15.88;12.15;;;;;;;;;;5026575;28;20049;-72
2022/06/28 04:16:54;;;;;;;19.08;12.27;;;;;;;;;;5027061;28;20844;-72
2022/06/28 04:19:41;;;;;;;18.73;12.20;;;;;;;;;;5025528;28;20075;-72
2022/06/28 04:22:11;;;;;;;12.88;9.80;;;;;;;;;;5026919;28;20049;-72
2022/06/28 04:24:42;;;;;;;14.83;9.57;;;;;;;;;;5059087;28;20429;-72
2022/06/28 04:27:18;;;;;;;13.38;10.07;;;;;;;;;;5026213;28;20517;-72
2022/06/28 04:29:48;;;;;;;12.00;8.90;;;;;;;;;;5057867;28;20045;-72
2022/06/28 04:32:44;;;;;;;14.63;9.32;;;;;;;;;;5027117;28;20068;-72
2022/06/28 04:35:16;;;;;;;13.10;9.00;;;;;;;;;;5025863;28;20061;-72
2022/06/28 04:37:46;;;;;;;15.40;9.10;;;;;;;;;;5026052;28;20053;-72
2022/06/28 04:40:36;;;;;;;11.80;7.38;;;;;;;;;;5026826;28;20057;-72
2022/06/28 04:43:32;;;;;;;13.02;7.90;;;;;;;;;;5025524;28;20057;-72
2022/06/28 04:46:03;;;;;;;8.90;6.93;;;;;;;;;;5025702;28;20057;-72
2022/06/28 04:48:36;;;;;;;15.55;7.38;;;;;;;;;;5025843;28;20049;-72
2022/06/28 04:51:12;;;;;;;15.95;7.22;;;;;;;;;;5025502;28;20804;-72
2022/06/28 04:53:50;;;;;;;16.80;8.50;;;;;;;;;;5025869;28;20073;-72
2022/06/28 04:56:24;;;;;;;12.95;8.90;;;;;;;;;;5025890;28;20058;-72
2022/06/28 04:58:54;;;;;;;13.45;7.68;;;;;;;;;;5025701;28;20050;-72
2022/06/28 05:01:24;;;;;;;11.88;6.78;;;;;;;;;;5025927;28;20053;-72
2022/06/28 05:03:55;;;;;;;14.25;7.63;;;;;;;;;;5026078;28;20080;-72
2022/06/28 05:06:50;;;;;;;11.45;8.02;;;;;;;;;;5025946;28;20069;-72
2022/06/28 05:09:21;;;;;;;10.35;7.95;;;;;;;;;;5025682;28;20056;-72
2022/06/28 05:12:06;;;;;;;13.02;8.27;;;;;;;;;;5026276;28;20053;-72
2022/06/28 05:14:39;;;;;;;11.88;7.18;;;;;;;;;;5025272;28;20049;-72
2022/06/28 05:17:12;;;;;;;15.57;9.18;;;;;;;;;;5025627;28;20167;-72
2022/06/28 05:19:42;;;;;;;11.20;8.20;;;;;;;;;;5027018;28;20041;-72
2022/06/28 05:22:13;;;;;;;15.70;7.43;;;;;;;;;;5026187;28;20068;-72
2022/06/28 05:25:03;;;;;;;9.80;8.13;;;;;;;;;;5025183;28;20053;-72
2022/06/28 05:27:35;;;;;;;9.23;7.47;;;;;;;;;;5024808;28;20418;-72
2022/06/28 05:30:05;;;;;;;18.15;7.47;;;;;;;;;;5026025;28;20045;-72
2022/06/28 05:32:36;;;;;;;17.98;9.18;;;;;;;;;;5026626;28;20544;-72
2022/06/28 05:35:07;;;;;;;15.55;8.48;;;;;;;;;;5027447;28;20052;-72
2022/06/28 05:37:36;;;;;;;14.65;8.23;;;;;;;;;;5026891;28;20045;-72
2022/06/28 05:40:07;;;;;;;14.45;8.32;;;;;;;;;;5026712;28;20821;-72
2022/06/28 05:42:37;;;;;;;9.77;7.67;;;;;;;;;;5029141;28;20508;-72
2022/06/28 05:45:08;;;;;;;10.45;7.75;;;;;;;;;;5029521;28;20049;-72
2022/06/28 05:47:38;;;;;;;10.32;7.25;;;;;;;;;;5012945;28;20416;-72
2022/06/28 05:50:08;;;;;;;7.68;6.18;;;;;;;;;;5030251;28;20417;-72
2022/06/28 05:52:38;;;;;;;8.40;6.32;;;;;;;;;;5029220;28;20489;-72
2022/06/28 05:55:09;;;;;;;13.75;6.88;;;;;;;;;;5062126;28;20064;-72
2022/06/28 05:57:40;;;;;;;11.63;7.22;;;;;;;;;;5028510;28;20635;-72
2022/06/28 06:00:11;;;;;;;10.25;7.28;;;;;;;;;;5030532;28;20378;-73
2022/06/28 06:02:44;;;;;;;11.13;7.72;;;;;;;;;;5028708;28;20057;-72
2022/06/28 06:05:15;;;;;;;15.98;7.72;;;;;;;;;;5029934;28;20512;-72
2022/06/28 06:07:48;;;;;;;10.75;7.22;;;;;;;;;;5029561;28;20076;-72
2022/06/28 06:10:18;;;;;;;10.90;8.25;;;;;;;;;;5028711;28;20053;-72
2022/06/28 06:12:48;;;;;;;22.00;8.27;;;;;;;;;;5030287;28;20045;-72
2022/06/28 06:15:18;;;;;;;10.18;6.85;;;;;;;;;;5028746;28;20046;-72
2022/06/28 06:17:47;;;;;;;11.02;7.28;;;;;;;;;;5028812;28;20049;-72
2022/06/28 06:20:18;;;;;;;12.43;7.45;;;;;;;;;;5030194;28;20503;-72
2022/06/28 06:22:49;;;;;;;12.30;7.85;;;;;;;;;;5028332;28;20049;-72
2022/06/28 06:25:42;;;;;;;9.82;7.00;;;;;;;;;;5029716;28;20042;-72
2022/06/28 06:28:12;;;;;;;11.52;7.15;;;;;;;;;;5028278;28;20520;-72
2022/06/28 06:30:42;;;;;;;16.45;7.57;;;;;;;;;;5030161;28;20052;-72
2022/06/28 06:33:21;;;;;;;8.07;6.03;;;;;;;;;;5028129;28;20061;-72
2022/06/28 06:36:18;;;;;;;7.57;6.47;;;;;;;;;;5029669;28;20424;-72
2022/06/28 06:38:49;;;;;;;9.55;6.53;;;;;;;;;;5028058;28;20053;-72
2022/06/28 06:41:19;;;;;;;7.47;5.88;;;;;;;;;;5028073;28;20424;-72
2022/06/28 06:43:53;;;;;;;9.10;5.85;;;;;;;;;;5027461;28;20050;-72
2022/06/28 06:46:24;;;;;;;7.20;5.60;;;;;;;;;;5029373;28;20052;-72
2022/06/28 06:48:54;;;;;;;8.82;6.38;;;;;;;;;;5027838;28;20056;-72
2022/06/28 06:51:24;;;;;;;10.90;6.20;;;;;;;;;;5028246;28;20398;-72
2022/06/28 06:53:54;;;;;;;8.52;6.40;;;;;;;;;;5027965;28;20060;-72
2022/06/28 06:56:24;;;;;;;9.85;6.65;;;;;;;;;;5027694;28;20417;-72
2022/06/28 06:58:53;;;;;;;10.82;6.38;;;;;;;;;;5029157;28;20053;-72
2022/06/28 07:01:23;;;;;;;5.63;4.95;;;;;;;;;;5029132;28;20501;-72
2022/06/28 07:04:16;;;;;;;9.02;5.72;;;;;;;;;;5027748;28;20060;-72
2022/06/28 07:06:46;;;;;;;9.85;5.88;;;;;;;;;;5028898;28;20068;-72
2022/06/28 07:09:16;;;;;;;10.18;5.47;;;;;;;;;;5029409;28;20041;-72
2022/06/28 07:11:47;;;;;;;14.68;6.95;;;;;;;;;;5027763;28;20064;-72
2022/06/28 07:14:18;;;;;;;11.18;6.15;;;;;;;;;;5027283;28;20053;-73
2022/06/28 07:16:48;;;;;;;9.13;4.90;;;;;;;;;;5027794;28;20053;-73
2022/06/28 07:19:18;;;;;;;6.05;4.85;;;;;;;;;;5027020;28;20053;-73
2022/06/28 07:21:51;;;;;;;9.73;6.45;;;;;;;;;;5026972;28;20054;-72
2022/06/28 07:24:22;;;;;;;11.20;6.20;;;;;;;;;;5027479;28;20045;-72
2022/06/28 07:26:52;;;;;;;7.07;6.18;;;;;;;;;;5027487;28;20424;-72
2022/06/28 07:29:22;;;;;;;15.15;6.65;;;;;;;;;;5027719;28;20115;-72
2022/06/28 07:31:52;;;;;;;10.25;6.30;;;;;;;;;;5027282;28;20124;-72
2022/06/28 07:34:24;;;;;;;8.68;6.38;;;;;;;;;;5028085;28;20045;-72
2022/06/28 07:36:54;;;;;;;8.70;5.27;;;;;;;;;;5030004;28;20053;-72
2022/06/28 07:39:25;;;;;;;7.32;5.43;;;;;;;;;;5060953;28;20053;-72
2022/06/28 07:42:13;;;;;;;8.30;5.47;;;;;;;;;;5033551;28;20057;-72
2022/06/28 07:45:02;;;;;;;7.03;5.47;;;;;;;;;;5031432;28;20049;-72
2022/06/28 07:47:34;;;;;;;13.68;6.07;;;;;;;;;;5027021;28;20069;-72
2022/06/28 07:52:54;;;;;;;11.60;7.35;;;;;;;;;;5028251;28;20050;-72
2022/06/28 07:55:31;;;;;;;11.00;6.75;;;;;;;;;;5026884;28;20520;-72
2022/06/28 07:58:07;;;;;;;9.75;6.72;;;;;;;;;;5026732;28;20058;-72
2022/06/28 08:00:38;;;;;;;;;;;;;;;;;;5027616;28;20053;-72
2022/06/28 08:03:18;;;;;;;8.20;6.07;;;;;;;;;;5027019;28;19925;-72
2022/06/28 08:05:49;;;;;;;11.32;5.88;;;;;;;;;;5059271;28;20050;-72
2022/06/28 08:08:22;;;;;;;9.57;6.32;;;;;;;;;;5025955;28;20066;-72
2022/06/28 08:10:53;;;;;;;14.60;7.32;;;;;;;;;;5026354;28;20525;-72
2022/06/28 08:13:25;;;;;;;7.43;6.07;;;;;;;;;;5026155;28;20413;-72
2022/06/28 08:15:55;;;;;;;;;;;;;;;;;;5027312;28;20057;-72
2022/06/28 08:18:24;;;;;;;9.60;6.53;;;;;;;;;;5059475;28;20040;-72
2022/06/28 08:20:55;;;;;;;10.95;6.90;;;;;;;;;;5026511;28;20057;-73
2022/06/28 08:23:25;;;;;;;9.23;6.80;;;;;;;;;;5026154;28;20061;-72
2022/06/28 08:25:55;;;;;;;16.13;7.57;;;;;;;;;;5026110;28;20633;-72
2022/06/28 08:28:25;;;;;;;11.75;7.93;;;;;;;;;;5025818;28;20057;-72
2022/06/28 08:30:59;;;;;;;9.50;7.32;;;;;;;;;;5026741;28;20787;-72
2022/06/28 08:33:29;;;;;;;10.85;7.18;;;;;;;;;;5025635;28;20053;-72
2022/06/28 08:36:01;;;;;;;10.32;7.13;;;;;;;;;;5027279;28;20421;-72
2022/06/28 08:38:32;;;;;;;7.43;5.53;;;;;;;;;;5026987;28;20048;-73
2022/06/28 08:41:03;;;;;;;;;;;;;;;;;;5027972;28;20045;-73
2022/06/28 08:43:33;;;;;;;6.23;4.87;;;;;;;;;;5027734;28;19932;-73
2022/06/28 08:46:03;;;;;;;17.08;5.50;;;;;;;;;;5027254;28;20575;-73
2022/06/28 08:48:42;;;;;;;9.23;5.68;;;;;;;;;;5026882;28;20049;-72
2022/06/28 08:51:12;;;;;;;8.68;5.45;;;;;;;;;;5027124;28;20049;-73
2022/06/28 08:53:45;;;;;;;17.20;6.85;;;;;;;;;;5025444;28;20057;-72
2022/06/28 08:56:15;;;;;;;16.05;6.57;;;;;;;;;;5026958;28;20058;-72
2022/06/28 08:58:45;;;;;;;10.40;6.05;;;;;;;;;;5025986;28;20217;-72
2022/06/28 09:01:15;;;;;;;11.18;6.82;;;;;;;;;;5026917;28;20049;-72
2022/06/28 09:03:49;;;;;;;11.27;6.10;;;;;;;;;;5026994;28;20768;-74
2022/06/28 09:06:23;;;;;;;13.48;6.35;;;;;;;;;;5026979;28;20049;-72
2022/06/28 09:08:54;;;;;;;7.45;5.85;;;;;;;;;;5026948;28;20056;-71
2022/06/28 09:11:24;;;;;;;9.85;5.90;;;;;;;;;;5025836;28;20060;-72
2022/06/28 09:13:53;;;;;;;6.90;5.53;;;;;;;;;;5026883;28;20050;-72
2022/06/28 09:16:24;;;;;;;6.53;4.70;;;;;;;;;;5026442;28;20056;-72
2022/06/28 09:18:55;;;;;;;10.68;6.07;;;;;;;;;;5026811;28;20052;-72
2022/06/28 09:21:24;;;;;;;15.85;6.57;;;;;;;;;;5026572;28;20064;-72
2022/06/28 09:24:02;;;;;;;9.45;6.88;;;;;;;;;;5026195;28;20054;-72
2022/06/28 09:26:33;;;;;;;7.65;5.65;;;;;;;;;;5027324;28;20049;-72
2022/06/28 09:29:13;;;;;;;13.85;5.40;;;;;;;;;;5025478;28;20053;-72
2022/06/28 09:31:44;;;;;;;8.25;5.32;;;;;;;;;;5025193;28;20049;-72
2022/06/28 09:34:14;;;;;;;5.77;5.03;;;;;;;;;;5025124;28;20057;-74
2022/06/28 09:36:58;;;;;;;6.15;4.55;;;;;;;;;;5025502;28;20323;-72
2022/06/28 09:39:29;;;;;;;10.07;5.32;;;;;;;;;;5026366;28;20048;-74
2022/06/28 09:42:00;;;;;;;;;;;;;;;;;;5027158;28;20053;-73
2022/06/28 09:44:51;;;;;;;14.88;5.35;;;;;;;;;;5026872;28;20347;-73
2022/06/28 09:47:22;;;;;;;12.20;5.65;;;;;;;;;;5026405;28;20045;-73
2022/06/28 09:50:00;;;;;;;11.60;6.05;;;;;;;;;;5026128;28;20403;-73
2022/06/28 09:52:31;;;;;;;7.50;6.18;;;;;;;;;;5026049;28;20053;-73
2022/06/28 09:55:01;;;;;;;;;;;;;;;;;;5026426;28;20042;-73
2022/06/28 09:57:34;;;;;;;10.73;5.47;;;;;;;;;;5026438;28;19932;-73
2022/06/28 10:00:05;;;;;;;16.95;6.70;;;;;;;;;;5025886;28;20049;-73
2022/06/28 10:02:42;;;;;;;15.63;6.57;;;;;;;;;;5028900;28;20049;-73
2022/06/28 10:05:13;;;;;;;9.98;6.35;;;;;;;;;;5026972;28;20046;-74
2022/06/28 10:07:44;;;;;;;9.88;6.07;;;;;;;;;;5026746;28;20148;-73
2022/06/28 10:10:15;;;;;;;16.00;6.70;;;;;;;;;;5026748;28;20056;-74
2022/06/28 10:15:40;;;;;;;14.85;5.07;;;;;;;;;;5058577;28;20061;-75
2022/06/28 10:18:16;;;;;;;9.35;5.88;;;;;;;;;;5025700;28;20041;-73
2022/06/28 10:20:47;;;;;;;6.82;5.93;;;;;;;;;;5026028;28;20852;-74
2022/06/28 10:23:36;;;;;;;9.32;5.38;;;;;;;;;;5026335;28;20053;-73
2022/06/28 10:26:17;;;;;;;9.73;5.35;;;;;;;;;;5026126;28;20060;-72
2022/06/28 10:29:01;;;;;;;11.68;5.05;;;;;;;;;;5027966;28;20045;-73
2022/06/28 10:31:34;;;;;;;8.95;4.68;;;;;;;;;;5029757;28;20049;-73
2022/06/28 10:34:16;;;;;;;8.07;4.97;;;;;;;;;;5029856;28;20037;-73
2022/06/28 10:36:52;;;;;;;28.05;9.55;;;;;;;;;;5029251;28;20443;-73
2022/06/28 10:39:31;;;;;;;11.45;8.20;;;;;;;;;;5029416;28;20060;-73
2022/06/28 10:42:02;;;;;;;10.50;6.20;;;;;;;;;;5029163;28;20049;-73
2022/06/28 10:44:31;;;;;;;9.55;7.35;;;;;;;;;;5027390;28;20519;-73
2022/06/28 10:47:01;;;;;;;30.63;7.65;;;;;;;;;;5027054;28;20053;-73
2022/06/28 10:49:46;;;;;;;37.95;8.43;;;;;;;;;;5027436;28;20072;-73
2022/06/28 10:52:30;;;;;;;156.68;12.63;;;;;;;;;;5029375;28;20053;-73
2022/06/28 10:55:04;;;;;;;36.58;10.43;;;;;;;;;;5028988;28;20049;-73
2022/06/28 10:57:35;;;;;;;14.75;7.32;;;;;;;;;;5029081;28;20046;-73
2022/06/28 11:00:22;;;;;;;26.33;8.25;;;;;;;;;;5029225;28;20397;-73
2022/06/28 11:02:51;;;;;;;23.60;7.43;;;;;;;;;;5029133;28;20049;-73
2022/06/28 11:05:26;;;;;;;36.28;8.63;;;;;;;;;;5028985;28;20057;-73
2022/06/28 11:08:04;;;;;;;12.25;7.38;;;;;;;;;;5028566;28;20042;-73
2022/06/28 11:10:34;;;;;;;13.90;7.50;;;;;;;;;;5028527;28;20053;-73
2022/06/28 11:13:22;;;;;;;13.82;7.10;;;;;;;;;;5028974;28;20041;-72
2022/06/28 11:15:52;;;;;;;8.20;6.70;;;;;;;;;;5029582;28;20053;-75
2022/06/28 11:18:25;;;;;;;12.05;6.97;;;;;;;;;;5028665;28;20049;-73
2022/06/28 11:20:56;;;;;;;9.10;6.50;;;;;;;;;;5028640;28;21158;-73
2022/06/28 11:23:29;;;;;;;7.95;6.15;;;;;;;;;;5028863;28;20052;-73
2022/06/28 11:29:03;;;;;;;6.28;5.68;;;;;;;;;;5027720;28;20041;-73
2022/06/28 11:31:42;;;;;;;11.57;5.95;;;;;;;;;;5028430;28;20050;-76
2022/06/28 11:34:12;;;;;;;6.97;5.07;;;;;;;;;;5027094;28;20053;-73
2022/06/28 11:36:45;;;;;;;9.25;4.55;;;;;;;;;;5027154;28;20053;-73
2022/06/28 11:39:21;;;;;;;11.50;4.82;;;;;;;;;;5027698;28;20048;-73
2022/06/28 11:41:56;;;;;;;7.43;4.68;;;;;;;;;;5028355;28;20067;-73
2022/06/28 11:44:26;;;;;;;26.00;10.55;;;;;;;;;;5028011;28;20056;-77
2022/06/28 11:46:57;;;;;;;13.18;5.22;;;;;;;;;;5028028;28;20045;-73
2022/06/28 11:49:32;;;;;;;8.77;4.55;;;;;;;;;;5028448;28;20064;-74
2022/06/28 11:52:03;;;;;;;6.95;4.63;;;;;;;;;;5027629;28;20049;-73
2022/06/28 11:54:33;;;;;;;10.82;4.47;;;;;;;;;;5028005;28;20067;-73
2022/06/28 11:57:14;;;;;;;4.55;3.92;;;;;;;;;;5028069;28;20500;-73
2022/06/28 11:59:54;;;;;;;6.95;4.38;;;;;;;;;;5028138;28;20053;-74
2022/06/28 12:02:45;;;;;;;7.30;4.60;;;;;;;;;;5028233;28;20063;-73
2022/06/28 12:05:27;;;;;;;9.88;4.13;;;;;;;;;;5028349;28;20041;-73
2022/06/28 12:07:58;;;;;;;9.40;4.75;;;;;;;;;;5028141;28;20056;-74
2022/06/28 12:10:31;;;;;;;5.82;4.50;;;;;;;;;;5027302;28;20061;-74
2022/06/28 12:13:11;;;;;;;18.65;6.72;;;;;;;;;;5028052;28;20052;-72
2022/06/28 12:15:42;;;;;;;22.80;5.97;;;;;;;;;;5027377;28;20049;-73
2022/06/28 12:18:12;;;;;;;16.35;7.72;;;;;;;;;;5028323;28;20053;-73
2022/06/28 12:20:55;;;;;;;13.48;5.72;;;;;;;;;;5028077;28;20049;-75
2022/06/28 12:23:25;;;;;;;16.45;5.70;;;;;;;;;;5028277;28;20500;-73
2022/06/28 12:26:01;;;;;;;24.35;6.03;;;;;;;;;;5028189;28;20068;-73
2022/06/28 12:28:31;;;;;;;6.93;5.47;;;;;;;;;;5027405;28;20076;-72
2022/06/28 12:31:01;;;;;;;13.27;5.70;;;;;;;;;;5026799;28;20049;-73
2022/06/28 12:33:31;;;;;;;12.00;6.05;;;;;;;;;;5026858;28;20488;-73
2022/06/28 12:36:01;;;;;;;7.90;5.70;;;;;;;;;;5027465;28;20057;-73
2022/06/28 12:38:31;;;;;;;6.05;5.45;;;;;;;;;;5027121;28;20495;-73
2022/06/28 12:41:01;;;;;;;14.73;6.43;;;;;;;;;;5026825;28;20045;-73
2022/06/28 12:43:31;;;;;;;14.02;6.15;;;;;;;;;;5025610;28;20424;-73
2022/06/28 12:46:02;;;;;;;15.50;7.30;;;;;;;;;;5027131;28;20072;-73
2022/06/28 12:48:32;;;;;;;6.38;4.70;;;;;;;;;;5027163;28;20062;-73
2022/06/28 12:51:02;;;;;;;9.73;5.60;;;;;;;;;;5026378;28;20417;-73
2022/06/28 12:53:32;;;;;;;12.50;5.85;;;;;;;;;;5027142;28;20049;-73
2022/06/28 12:56:02;;;;;;;13.60;5.50;;;;;;;;;;5026500;28;20116;-73
2022/06/28 12:58:32;;;;;;;6.25;4.82;;;;;;;;;;5026997;28;20048;-73
2022/06/28 13:01:02;;;;;;;5.90;3.80;;;;;;;;;;5027023;28;20049;-73
2022/06/28 13:03:32;;;;;;;7.75;4.72;;;;;;;;;;5026384;28;20045;-73
2022/06/28 13:06:02;;;;;;;10.05;4.95;;;;;;;;;;5026967;28;20046;-73
2022/06/28 13:08:32;;;;;;;7.47;4.50;;;;;;;;;;5026858;28;20042;-73
2022/06/28 13:11:02;;;;;;;5.20;4.70;;;;;;;;;;5025274;28;20057;-73
2022/06/28 13:13:32;;;;;;;5.32;4.53;;;;;;;;;;5026962;28;20049;-73
2022/06/28 13:16:03;;;;;;;3.80;3.50;;;;;;;;;;5026874;28;20053;-73
2022/06/28 13:18:44;;;;;;;4.43;3.45;;;;;;;;;;5026648;28;20428;-73
2022/06/28 13:21:14;;;;;;;10.17;3.30;;;;;;;;;;5026219;28;20053;-73
2022/06/28 13:23:44;;;;;;;3.10;2.78;;;;;;;;;;5026812;28;20050;-73
2022/06/28 13:26:14;;;;;;;5.60;2.80;;;;;;;;;;5027102;28;20410;-73
2022/06/28 13:28:52;;;;;;;3.53;2.85;;;;;;;;;;5026811;28;20053;-74
2022/06/28 13:31:22;;;;;;;4.40;3.22;;;;;;;;;;5026224;28;20054;-75
2022/06/28 13:33:52;;;;;;;7.32;3.10;;;;;;;;;;5026662;28;20052;-73
2022/06/28 13:36:22;;;;;;;4.93;3.20;;;;;;;;;;5025314;28;20068;-73
2022/06/28 13:38:52;;;;;;;4.78;3.25;;;;;;;;;;5026576;28;20045;-73
2022/06/28 13:41:37;;;;;;;4.47;2.75;;;;;;;;;;5025812;28;20046;-72
2022/06/28 13:44:08;;;;;;;7.03;3.60;;;;;;;;;;5026246;28;20037;-72
2022/06/28 13:46:39;;;;;;;4.90;3.45;;;;;;;;;;5026335;28;20056;-73
2022/06/28 13:49:09;;;;;;;5.07;3.22;;;;;;;;;;5026918;28;20133;-73
2022/06/28 13:51:39;;;;;;;6.88;4.00;;;;;;;;;;5026506;28;20053;-73
2022/06/28 13:54:09;;;;;;;5.65;3.60;;;;;;;;;;5026503;28;20211;-73
2022/06/28 13:56:39;;;;;;;23.38;5.63;;;;;;;;;;5026229;28;20493;-73
2022/06/28 13:59:09;;;;;;;3.65;3.35;;;;;;;;;;5025097;28;20045;-73
2022/06/28 14:01:39;;;;;;;5.45;3.88;;;;;;;;;;5026741;28;20050;-74
2022/06/28 14:04:09;;;;;;;11.20;4.30;;;;;;;;;;5030541;28;20054;-73
2022/06/28 14:06:39;;;;;;;5.63;3.50;;;;;;;;;;5030070;28;20405;-73
2022/06/28 14:09:09;;;;;;;6.10;3.67;;;;;;;;;;5030178;28;20651;-75
2022/06/28 14:11:39;;;;;;;5.23;3.47;;;;;;;;;;5030220;28;20072;-74
2022/06/28 14:14:16;;;;;;;7.93;3.60;;;;;;;;;;5029749;28;20775;-74
2022/06/28 14:16:46;;;;;;;4.72;3.50;;;;;;;;;;5028749;28;20519;-73
2022/06/28 14:19:17;;;;;;;3.85;3.45;;;;;;;;;;5029932;28;20056;-73
2022/06/28 14:21:47;;;;;;;6.53;3.50;;;;;;;;;;5028184;28;20049;-73
2022/06/28 14:24:17;;;;;;;4.50;3.72;;;;;;;;;;5029550;28;20045;-73
2022/06/28 14:26:47;;;;;;;7.50;3.47;;;;;;;;;;5029798;28;20443;-73
2022/06/28 14:29:17;;;;;;;7.90;3.80;;;;;;;;;;5030051;28;20045;-73
2022/06/28 14:31:47;;;;;;;4.00;3.42;;;;;;;;;;5030165;28;20049;-73
2022/06/28 14:34:17;;;;;;;4.43;3.97;;;;;;;;;;5029050;28;20543;-74
2022/06/28 14:36:53;;;;;;;16.13;5.43;;;;;;;;;;5029924;28;20056;-72
2022/06/28 14:39:23;;;;;;;13.27;4.35;;;;;;;;;;5029618;28;20376;-72
2022/06/28 14:41:54;;;;;;;28.13;5.90;;;;;;;;;;5029319;28;20041;-73
2022/06/28 14:44:24;;;;;;;10.43;3.95;;;;;;;;;;5028952;28;20398;-75
2022/06/28 14:46:54;;;;;;;5.95;4.15;;;;;;;;;;5029039;28;20051;-73
2022/06/28 14:49:24;;;;;;;4.72;4.00;;;;;;;;;;5029461;28;20045;-73
2022/06/28 14:51:53;;;;;;;27.08;5.88;;;;;;;;;;5029410;28;20500;-72
2022/06/28 14:54:23;;;;;;;21.45;5.60;;;;;;;;;;5029470;28;20072;-73
2022/06/28 14:56:53;;;;;;;5.18;4.20;;;;;;;;;;5029276;28;20523;-73
2022/06/28 14:59:23;;;;;;;9.10;4.47;;;;;;;;;;5028226;28;20048;-73
2022/06/28 15:01:55;;;;;;;6.60;4.13;;;;;;;;;;5029144;28;20793;-74
2022/06/28 15:04:26;;;;;;;11.13;4.78;;;;;;;;;;5028782;28;20044;-74
2022/06/28 15:06:56;;;;;;;13.13;4.60;;;;;;;;;;5028813;28;20096;-74
2022/06/28 15:09:26;;;;;;;8.18;4.50;;;;;;;;;;5028774;28;20058;-73
2022/06/28 15:11:57;;;;;;;24.58;5.30;;;;;;;;;;5059688;28;20049;-74
2022/06/28 15:14:26;;;;;;;11.10;4.88;;;;;;;;;;5027676;28;20404;-73
2022/06/28 15:16:57;;;;;;;23.40;4.95;;;;;;;;;;5028740;28;20052;-74
2022/06/28 15:19:27;;;;;;;;;;;;;;;;;;5029362;28;20045;-74
2022/06/28 15:30:53;;;;;;;8.52;5.00;;;;;;;;;;5028402;28;20488;-74
2022/06/28 15:33:26;;;;;;;15.40;4.53;;;;;;;;;;5028791;28;20075;-73